sensor_id;sensor_type;location;lat;lon;timestamp;pressure;altitude;pressure_sealevel;temperature;humidity
25498;BME280;13406;53.380;7.226;2023-11-21T00:00:14;102423.03;;;8.74;100.00
25498;BME280;13406;53.380;7.226;2023-11-21T00:02:40;102412.34;;;8.65;100.00
25498;BME280;13406;53.380;7.226;2023-11-21T00:05:10;102436.81;;;8.79;100.00
25498;BME280;13406;53.380;7.226;2023-11-21T00:07:37;102439.22;;;8.73;100.00
25498;BME280;13406;53.380;7.226;2023-11-21T00:10:03;102444.69;;;8.81;100.00
25498;BME280;13406;53.380;7.226;2023-11-21T00:12:30;102447.59;;;8.88;100.00
25498;BME280;13406;53.380;7.226;2023-11-21T00:14:56;102457.22;;;8.80;100.00
25498;BME280;13406;53.380;7.226;2023-11-21T00:17:22;102428.22;;;8.76;100.00
25498;BME280;13406;53.380;7.226;2023-11-21T00:19:47;102390.19;;;8.54;100.00
25498;BME280;13406;53.380;7.226;2023-11-21T00:22:12;102459.00;;;8.90;100.00
25498;BME280;13406;53.380;7.226;2023-11-21T00:24:38;102455.50;;;8.89;100.00
25498;BME280;13406;53.380;7.226;2023-11-21T00:27:03;102460.13;;;8.97;100.00
25498;BME280;13406;53.380;7.226;2023-11-21T00:29:29;102390.31;;;8.53;100.00
25498;BME280;13406;53.380;7.226;2023-11-21T00:31:54;102458.88;;;8.91;100.00
25498;BME280;13406;53.380;7.226;2023-11-21T00:34:20;102233.56;;;7.50;100.00
25498;BME280;13406;53.380;7.226;2023-11-21T00:36:45;102433.44;;;8.77;100.00
25498;BME280;13406;53.380;7.226;2023-11-21T00:39:11;102465.00;;;9.01;100.00
25498;BME280;13406;53.380;7.226;2023-11-21T00:41:37;102472.78;;;8.95;100.00
25498;BME280;13406;53.380;7.226;2023-11-21T00:44:03;102424.28;;;8.80;100.00
25498;BME280;13406;53.380;7.226;2023-11-21T00:46:28;102437.09;;;8.76;100.00
25498;BME280;13406;53.380;7.226;2023-11-21T00:48:54;102453.34;;;8.93;100.00
25498;BME280;13406;53.380;7.226;2023-11-21T00:51:20;102426.38;;;8.76;100.00
25498;BME280;13406;53.380;7.226;2023-11-21T00:53:47;102439.22;;;8.73;100.00
25498;BME280;13406;53.380;7.226;2023-11-21T00:56:13;102475.75;;;8.92;100.00
25498;BME280;13406;53.380;7.226;2023-11-21T00:58:39;102421.97;;;8.57;100.00
25498;BME280;13406;53.380;7.226;2023-11-21T01:01:07;102471.09;;;8.94;100.00
25498;BME280;13406;53.380;7.226;2023-11-21T01:03:33;102489.84;;;9.21;100.00
25498;BME280;13406;53.380;7.226;2023-11-21T01:05:58;102452.56;;;8.82;100.00
25498;BME280;13406;53.380;7.226;2023-11-21T01:08:24;102490.03;;;9.10;100.00
25498;BME280;13406;53.380;7.226;2023-11-21T01:10:49;102496.03;;;9.22;100.00
25498;BME280;13406;53.380;7.226;2023-11-21T01:13:15;102497.72;;;9.23;100.00
25498;BME280;13406;53.380;7.226;2023-11-21T01:15:40;102496.78;;;9.14;100.00
25498;BME280;13406;53.380;7.226;2023-11-21T01:18:06;102496.78;;;9.14;100.00
25498;BME280;13406;53.380;7.226;2023-11-21T01:20:33;102503.75;;;9.25;100.00
25498;BME280;13406;53.380;7.226;2023-11-21T01:22:59;102473.97;;;9.10;100.00
25498;BME280;13406;53.380;7.226;2023-11-21T01:25:24;102501.09;;;9.25;100.00
25498;BME280;13406;53.380;7.226;2023-11-21T01:27:51;102512.63;;;9.25;100.00
25498;BME280;13406;53.380;7.226;2023-11-21T01:30:17;102520.34;;;9.28;100.00
25498;BME280;13406;53.380;7.226;2023-11-21T01:32:43;102521.03;;;9.13;100.00
25498;BME280;13406;53.380;7.226;2023-11-21T01:35:09;102532.03;;;9.10;100.00
25498;BME280;13406;53.380;7.226;2023-11-21T01:37:35;102530.19;;;9.10;100.00
25498;BME280;13406;53.380;7.226;2023-11-21T01:40:01;102499.72;;;8.83;100.00
25498;BME280;13406;53.380;7.226;2023-11-21T01:42:27;102530.72;;;9.14;100.00
25498;BME280;13406;53.380;7.226;2023-11-21T01:44:54;102460.19;;;8.77;100.00
25498;BME280;13406;53.380;7.226;2023-11-21T01:47:20;102480.59;;;8.78;100.00
25498;BME280;13406;53.380;7.226;2023-11-21T01:49:46;102533.41;;;9.14;100.00
25498;BME280;13406;53.380;7.226;2023-11-21T01:52:12;102535.13;;;9.15;100.00
25498;BME280;13406;53.380;7.226;2023-11-21T01:54:38;102474.63;;;8.57;100.00
25498;BME280;13406;53.380;7.226;2023-11-21T01:57:04;102557.13;;;9.09;100.00
25498;BME280;13406;53.380;7.226;2023-11-21T01:59:38;102554.97;;;9.12;100.00
25498;BME280;13406;53.380;7.226;2023-11-21T02:02:08;102551.34;;;9.03;100.00
25498;BME280;13406;53.380;7.226;2023-11-21T02:04:35;102571.19;;;9.11;100.00
25498;BME280;13406;53.380;7.226;2023-11-21T02:07:02;102578.38;;;9.10;100.00
25498;BME280;13406;53.380;7.226;2023-11-21T02:09:31;102579.06;;;9.12;100.00
25498;BME280;13406;53.380;7.226;2023-11-21T02:11:57;102585.41;;;9.11;100.00
25498;BME280;13406;53.380;7.226;2023-11-21T02:14:25;102585.84;;;9.07;100.00
25498;BME280;13406;53.380;7.226;2023-11-21T02:16:52;102591.50;;;9.03;100.00
25498;BME280;13406;53.380;7.226;2023-11-21T02:19:19;102607.09;;;9.08;100.00
25498;BME280;13406;53.380;7.226;2023-11-21T02:21:49;102619.81;;;9.06;100.00
25498;BME280;13406;53.380;7.226;2023-11-21T02:24:15;102573.94;;;8.81;100.00
25498;BME280;13406;53.380;7.226;2023-11-21T02:26:41;102633.75;;;9.10;100.00
25498;BME280;13406;53.380;7.226;2023-11-21T02:29:06;102631.09;;;9.00;100.00
25498;BME280;13406;53.380;7.226;2023-11-21T02:31:36;102606.06;;;8.81;100.00
25498;BME280;13406;53.380;7.226;2023-11-21T02:34:02;102663.19;;;9.10;100.00
25498;BME280;13406;53.380;7.226;2023-11-21T02:36:28;102661.53;;;9.09;100.00
25498;BME280;13406;53.380;7.226;2023-11-21T02:38:53;102674.31;;;9.05;100.00
25498;BME280;13406;53.380;7.226;2023-11-21T02:41:19;102682.34;;;9.05;100.00
25498;BME280;13406;53.380;7.226;2023-11-21T02:43:44;102656.16;;;8.99;100.00
25498;BME280;13406;53.380;7.226;2023-11-21T02:46:09;102686.28;;;9.11;100.00
25498;BME280;13406;53.380;7.226;2023-11-21T02:48:35;102699.97;;;9.08;100.00
25498;BME280;13406;53.380;7.226;2023-11-21T02:51:01;102657.03;;;8.90;100.00
25498;BME280;13406;53.380;7.226;2023-11-21T02:53:26;102703.91;;;9.13;100.00
25498;BME280;13406;53.380;7.226;2023-11-21T02:55:52;102711.22;;;9.11;100.00
25498;BME280;13406;53.380;7.226;2023-11-21T02:58:17;102703.22;;;8.82;100.00
25498;BME280;13406;53.380;7.226;2023-11-21T03:00:42;102706.75;;;8.92;100.00
25498;BME280;13406;53.380;7.226;2023-11-21T03:03:08;102717.03;;;8.87;100.00
25498;BME280;13406;53.380;7.226;2023-11-21T03:05:33;102700.41;;;8.83;100.00
25498;BME280;13406;53.380;7.226;2023-11-21T03:08:01;102715.78;;;8.91;100.00
25498;BME280;13406;53.380;7.226;2023-11-21T03:10:26;102722.94;;;8.91;100.00
25498;BME280;13406;53.380;7.226;2023-11-21T03:12:52;102695.94;;;8.74;100.00
25498;BME280;13406;53.380;7.226;2023-11-21T03:15:18;102728.28;;;8.91;100.00
25498;BME280;13406;53.380;7.226;2023-11-21T03:17:43;102727.72;;;8.87;100.00
25498;BME280;13406;53.380;7.226;2023-11-21T03:20:09;102739.00;;;9.00;100.00
25498;BME280;13406;53.380;7.226;2023-11-21T03:22:36;102725.75;;;8.99;100.00
25498;BME280;13406;53.380;7.226;2023-11-21T03:25:03;102694.06;;;8.85;100.00
25498;BME280;13406;53.380;7.226;2023-11-21T03:27:28;102736.75;;;9.05;100.00
25498;BME280;13406;53.380;7.226;2023-11-21T03:29:53;102724.63;;;9.01;100.00
25498;BME280;13406;53.380;7.226;2023-11-21T03:32:19;102756.19;;;9.08;100.00
25498;BME280;13406;53.380;7.226;2023-11-21T03:34:56;102759.16;;;9.04;100.00
25498;BME280;13406;53.380;7.226;2023-11-21T03:37:22;102775.06;;;9.06;100.00
25498;BME280;13406;53.380;7.226;2023-11-21T03:39:47;102785.50;;;9.09;100.00
25498;BME280;13406;53.380;7.226;2023-11-21T03:42:13;102794.66;;;9.07;100.00
25498;BME280;13406;53.380;7.226;2023-11-21T03:44:38;102810.72;;;9.07;100.00
25498;BME280;13406;53.380;7.226;2023-11-21T03:47:03;102821.16;;;9.10;100.00
25498;BME280;13406;53.380;7.226;2023-11-21T03:49:29;102826.66;;;9.18;100.00
25498;BME280;13406;53.380;7.226;2023-11-21T03:51:55;102832.00;;;9.18;100.00
25498;BME280;13406;53.380;7.226;2023-11-21T03:54:21;102808.59;;;9.00;100.00
25498;BME280;13406;53.380;7.226;2023-11-21T03:56:46;102844.53;;;9.17;100.00
25498;BME280;13406;53.380;7.226;2023-11-21T03:59:12;102843.28;;;9.12;100.00
25498;BME280;13406;53.380;7.226;2023-11-21T04:01:37;102851.59;;;9.18;100.00
25498;BME280;13406;53.380;7.226;2023-11-21T04:04:03;102859.88;;;9.25;100.00
25498;BME280;13406;53.380;7.226;2023-11-21T04:06:29;102823.22;;;8.96;100.00
25498;BME280;13406;53.380;7.226;2023-11-21T04:08:54;102868.75;;;9.25;100.00
25498;BME280;13406;53.380;7.226;2023-11-21T04:11:20;102884.00;;;9.25;100.00
25498;BME280;13406;53.380;7.226;2023-11-21T04:13:45;102885.81;;;9.34;100.00
25498;BME280;13406;53.380;7.226;2023-11-21T04:16:12;102879.06;;;9.30;100.00
25498;BME280;13406;53.380;7.226;2023-11-21T04:18:38;102875.28;;;9.23;100.00
25498;BME280;13406;53.380;7.226;2023-11-21T04:21:07;102883.44;;;9.21;100.00
25498;BME280;13406;53.380;7.226;2023-11-21T04:23:33;102895.69;;;9.34;100.00
25498;BME280;13406;53.380;7.226;2023-11-21T04:25:59;102883.16;;;9.24;100.00
25498;BME280;13406;53.380;7.226;2023-11-21T04:28:25;102873.28;;;9.25;100.00
25498;BME280;13406;53.380;7.226;2023-11-21T04:30:50;102887.66;;;9.24;100.00
25498;BME280;13406;53.380;7.226;2023-11-21T04:33:16;102856.91;;;8.99;100.00
25498;BME280;13406;53.380;7.226;2023-11-21T04:35:41;102875.69;;;9.09;100.00
25498;BME280;13406;53.380;7.226;2023-11-21T04:38:07;102867.94;;;9.05;100.00
25498;BME280;13406;53.380;7.226;2023-11-21T04:40:32;102848.47;;;9.03;100.00
25498;BME280;13406;53.380;7.226;2023-11-21T04:42:58;102830.44;;;8.96;100.00
25498;BME280;13406;53.380;7.226;2023-11-21T04:45:23;102875.69;;;9.09;100.00
25498;BME280;13406;53.380;7.226;2023-11-21T04:47:49;102857.91;;;8.98;100.00
25498;BME280;13406;53.380;7.226;2023-11-21T04:50:14;102871.44;;;9.06;100.00
25498;BME280;13406;53.380;7.226;2023-11-21T04:52:39;102879.31;;;9.08;100.00
25498;BME280;13406;53.380;7.226;2023-11-21T04:55:05;102883.84;;;9.07;100.00
25498;BME280;13406;53.380;7.226;2023-11-21T04:57:35;102873.69;;;9.01;100.00
25498;BME280;13406;53.380;7.226;2023-11-21T05:00:00;102873.13;;;8.97;100.00
25498;BME280;13406;53.380;7.226;2023-11-21T05:02:25;102854.91;;;8.72;100.00
25498;BME280;13406;53.380;7.226;2023-11-21T05:04:51;102884.66;;;8.98;100.00
25498;BME280;13406;53.380;7.226;2023-11-21T05:07:16;102886.91;;;8.83;100.00
25498;BME280;13406;53.380;7.226;2023-11-21T05:09:45;102878.31;;;8.99;100.00
25498;BME280;13406;53.380;7.226;2023-11-21T05:12:12;102788.03;;;8.31;100.00
25498;BME280;13406;53.380;7.226;2023-11-21T05:14:38;102881.44;;;8.94;100.00
25498;BME280;13406;53.380;7.226;2023-11-21T05:17:03;102860.25;;;8.72;100.00
25498;BME280;13406;53.380;7.226;2023-11-21T05:19:33;102787.03;;;8.32;100.00
25498;BME280;13406;53.380;7.226;2023-11-21T05:21:59;102869.00;;;8.83;100.00
25498;BME280;13406;53.380;7.226;2023-11-21T05:24:26;102858.47;;;8.92;100.00
25498;BME280;13406;53.380;7.226;2023-11-21T05:26:51;102863.66;;;8.83;100.00
25498;BME280;13406;53.380;7.226;2023-11-21T05:29:16;102811.50;;;8.58;100.00
25498;BME280;13406;53.380;7.226;2023-11-21T05:31:42;102851.78;;;8.76;100.00
25498;BME280;13406;53.380;7.226;2023-11-21T05:34:07;102852.94;;;8.74;100.00
25498;BME280;13406;53.380;7.226;2023-11-21T05:36:32;102845.56;;;8.56;100.00
25498;BME280;13406;53.380;7.226;2023-11-21T05:38:58;102853.63;;;8.66;100.00
25498;BME280;13406;53.380;7.226;2023-11-21T05:41:24;102757.59;;;8.13;100.00
25498;BME280;13406;53.380;7.226;2023-11-21T05:43:50;102850.53;;;8.71;100.00
25498;BME280;13406;53.380;7.226;2023-11-21T05:46:16;102863.31;;;8.57;100.00
25498;BME280;13406;53.380;7.226;2023-11-21T05:48:41;102858.41;;;8.63;100.00
25498;BME280;13406;53.380;7.226;2023-11-21T05:51:07;102846.97;;;8.60;100.00
25498;BME280;13406;53.380;7.226;2023-11-21T05:53:34;102826.81;;;8.47;100.00
25498;BME280;13406;53.380;7.226;2023-11-21T05:56:00;102856.28;;;8.66;100.00
25498;BME280;13406;53.380;7.226;2023-11-21T05:58:25;102868.00;;;8.65;100.00
25498;BME280;13406;53.380;7.226;2023-11-21T06:00:50;102863.88;;;8.61;100.00
25498;BME280;13406;53.380;7.226;2023-11-21T06:03:16;102863.03;;;8.60;100.00
25498;BME280;13406;53.380;7.226;2023-11-21T06:05:42;102857.97;;;8.57;100.00
25498;BME280;13406;53.380;7.226;2023-11-21T06:08:08;102862.63;;;8.65;100.00
25498;BME280;13406;53.380;7.226;2023-11-21T06:10:34;102744.44;;;7.90;100.00
25498;BME280;13406;53.380;7.226;2023-11-21T06:12:59;102858.78;;;8.58;100.00
25498;BME280;13406;53.380;7.226;2023-11-21T06:15:25;102845.97;;;8.52;100.00
25498;BME280;13406;53.380;7.226;2023-11-21T06:17:51;102872.44;;;8.55;100.00
25498;BME280;13406;53.380;7.226;2023-11-21T06:20:20;102877.25;;;8.61;100.00
25498;BME280;13406;53.380;7.226;2023-11-21T06:22:47;102876.97;;;8.54;100.00
25498;BME280;13406;53.380;7.226;2023-11-21T06:25:13;102817.28;;;8.23;100.00
25498;BME280;13406;53.380;7.226;2023-11-21T06:27:41;102862.75;;;8.54;100.00
25498;BME280;13406;53.380;7.226;2023-11-21T06:30:07;102865.16;;;8.57;100.00
25498;BME280;13406;53.380;7.226;2023-11-21T06:32:38;102855.00;;;8.51;100.00
25498;BME280;13406;53.380;7.226;2023-11-21T06:35:05;102850.47;;;8.51;100.00
25498;BME280;13406;53.380;7.226;2023-11-21T06:37:32;102813.47;;;8.26;100.00
25498;BME280;13406;53.380;7.226;2023-11-21T06:39:58;102841.75;;;8.49;100.00
25498;BME280;13406;53.380;7.226;2023-11-21T06:42:24;102818.25;;;8.22;100.00
25498;BME280;13406;53.380;7.226;2023-11-21T06:44:50;102815.41;;;8.14;100.00
25498;BME280;13406;53.380;7.226;2023-11-21T06:47:20;102832.03;;;8.18;100.00
25498;BME280;13406;53.380;7.226;2023-11-21T06:49:46;102843.72;;;8.26;100.00
25498;BME280;13406;53.380;7.226;2023-11-21T06:52:13;102827.75;;;8.05;100.00
25498;BME280;13406;53.380;7.226;2023-11-21T06:54:39;102855.50;;;8.14;100.00
25498;BME280;13406;53.380;7.226;2023-11-21T06:57:05;102770.56;;;7.56;100.00
25498;BME280;13406;53.380;7.226;2023-11-21T06:59:30;102877.19;;;8.21;100.00
25498;BME280;13406;53.380;7.226;2023-11-21T07:01:55;102877.63;;;8.16;100.00
25498;BME280;13406;53.380;7.226;2023-11-21T07:04:21;102872.53;;;8.13;100.00
25498;BME280;13406;53.380;7.226;2023-11-21T07:06:46;102837.09;;;7.90;100.00
25498;BME280;13406;53.380;7.226;2023-11-21T07:09:12;102871.81;;;8.11;100.00
25498;BME280;13406;53.380;7.226;2023-11-21T07:11:38;102874.34;;;8.12;100.00
25498;BME280;13406;53.380;7.226;2023-11-21T07:14:04;102813.25;;;7.77;100.00
25498;BME280;13406;53.380;7.226;2023-11-21T07:16:36;102884.94;;;8.24;100.00
25498;BME280;13406;53.380;7.226;2023-11-21T07:19:04;102890.63;;;8.09;100.00
25498;BME280;13406;53.380;7.226;2023-11-21T07:21:36;102864.19;;;8.06;100.00
25498;BME280;13406;53.380;7.226;2023-11-21T07:24:02;102916.00;;;8.15;100.00
25498;BME280;13406;53.380;7.226;2023-11-21T07:26:28;102897.09;;;8.07;100.00
25498;BME280;13406;53.380;7.226;2023-11-21T07:28:54;102929.25;;;8.17;100.00
25498;BME280;13406;53.380;7.226;2023-11-21T07:31:19;102923.75;;;8.18;100.00
25498;BME280;13406;53.380;7.226;2023-11-21T07:33:47;102868.13;;;7.81;100.00
25498;BME280;13406;53.380;7.226;2023-11-21T07:36:14;102939.78;;;8.18;100.00
25498;BME280;13406;53.380;7.226;2023-11-21T07:38:40;102913.00;;;8.08;100.00
25498;BME280;13406;53.380;7.226;2023-11-21T07:41:05;102925.72;;;8.16;100.00
25498;BME280;13406;53.380;7.226;2023-11-21T07:43:34;102900.81;;;7.95;100.00
25498;BME280;13406;53.380;7.226;2023-11-21T07:46:04;102945.66;;;8.12;100.00
25498;BME280;13406;53.380;7.226;2023-11-21T07:48:30;102920.03;;;8.09;100.00
25498;BME280;13406;53.380;7.226;2023-11-21T07:50:57;102942.72;;;8.15;100.00
25498;BME280;13406;53.380;7.226;2023-11-21T07:53:26;102940.63;;;8.19;100.00
25498;BME280;13406;53.380;7.226;2023-11-21T07:56:02;102899.53;;;7.89;100.00
25498;BME280;13406;53.380;7.226;2023-11-21T07:58:28;102909.44;;;7.77;100.00
25498;BME280;13406;53.380;7.226;2023-11-21T08:00:53;102960.81;;;8.02;100.00
25498;BME280;13406;53.380;7.226;2023-11-21T08:03:19;102961.97;;;8.09;100.00
25498;BME280;13406;53.380;7.226;2023-11-21T08:05:44;102973.50;;;8.09;100.00
25498;BME280;13406;53.380;7.226;2023-11-21T08:08:10;102833.69;;;7.25;100.00
25498;BME280;13406;53.380;7.226;2023-11-21T08:10:35;102976.91;;;8.11;100.00
25498;BME280;13406;53.380;7.226;2023-11-21T08:13:02;102972.25;;;7.92;100.00
25498;BME280;13406;53.380;7.226;2023-11-21T08:15:27;102981.41;;;8.11;100.00
25498;BME280;13406;53.380;7.226;2023-11-21T08:17:54;102926.22;;;7.68;100.00
25498;BME280;13406;53.380;7.226;2023-11-21T08:20:19;102985.56;;;8.04;100.00
25498;BME280;13406;53.380;7.226;2023-11-21T08:22:45;103000.44;;;8.18;100.00
25498;BME280;13406;53.380;7.226;2023-11-21T08:25:12;103004.72;;;8.09;100.00
25498;BME280;13406;53.380;7.226;2023-11-21T08:27:38;103006.31;;;8.11;100.00
25498;BME280;13406;53.380;7.226;2023-11-21T08:30:04;103012.38;;;8.13;100.00
25498;BME280;13406;53.380;7.226;2023-11-21T08:32:30;102987.59;;;7.90;100.00
25498;BME280;13406;53.380;7.226;2023-11-21T08:34:58;102960.50;;;7.63;100.00
25498;BME280;13406;53.380;7.226;2023-11-21T08:37:24;103021.28;;;8.03;100.00
25498;BME280;13406;53.380;7.226;2023-11-21T08:39:50;103036.56;;;8.12;100.00
25498;BME280;13406;53.380;7.226;2023-11-21T08:42:18;103035.72;;;8.11;100.00
25498;BME280;13406;53.380;7.226;2023-11-21T08:44:43;103014.16;;;7.92;100.00
25498;BME280;13406;53.380;7.226;2023-11-21T08:47:09;103040.47;;;8.08;100.00
25498;BME280;13406;53.380;7.226;2023-11-21T08:49:34;103050.69;;;8.03;100.00
25498;BME280;13406;53.380;7.226;2023-11-21T08:51:59;103017.88;;;7.80;100.00
25498;BME280;13406;53.380;7.226;2023-11-21T08:54:26;103060.38;;;8.04;100.00
25498;BME280;13406;53.380;7.226;2023-11-21T08:56:54;103001.31;;;7.54;100.00
25498;BME280;13406;53.380;7.226;2023-11-21T08:59:20;102988.72;;;7.44;100.00
25498;BME280;13406;53.380;7.226;2023-11-21T09:01:46;103084.97;;;7.98;100.00
25498;BME280;13406;53.380;7.226;2023-11-21T09:04:11;103031.28;;;7.57;100.00
25498;BME280;13406;53.380;7.226;2023-11-21T09:06:38;103090.56;;;7.95;100.00
25498;BME280;13406;53.380;7.226;2023-11-21T09:09:03;103069.19;;;7.95;100.00
25498;BME280;13406;53.380;7.226;2023-11-21T09:11:31;103096.38;;;8.00;100.00
25498;BME280;13406;53.380;7.226;2023-11-21T09:13:59;103091.50;;;8.05;100.00
25498;BME280;13406;53.380;7.226;2023-11-21T09:16:24;103101.50;;;7.91;100.00
25498;BME280;13406;53.380;7.226;2023-11-21T09:18:50;103103.66;;;7.98;100.00
25498;BME280;13406;53.380;7.226;2023-11-21T09:21:15;103090.22;;;7.88;100.00
25498;BME280;13406;53.380;7.226;2023-11-21T09:23:40;103112.09;;;7.93;100.00
25498;BME280;13406;53.380;7.226;2023-11-21T09:26:06;103074.59;;;7.72;100.00
25498;BME280;13406;53.380;7.226;2023-11-21T09:28:31;103037.13;;;7.51;100.00
25498;BME280;13406;53.380;7.226;2023-11-21T09:30:57;103106.75;;;7.93;100.00
25498;BME280;13406;53.380;7.226;2023-11-21T09:33:22;103095.44;;;7.89;100.00
25498;BME280;13406;53.380;7.226;2023-11-21T09:35:50;103101.25;;;7.95;100.00
25498;BME280;13406;53.380;7.226;2023-11-21T09:38:16;103066.31;;;7.75;100.00
25498;BME280;13406;53.380;7.226;2023-11-21T09:40:41;103089.88;;;7.81;100.00
25498;BME280;13406;53.380;7.226;2023-11-21T09:43:16;103105.53;;;7.86;100.00
25498;BME280;13406;53.380;7.226;2023-11-21T09:45:45;103113.19;;;7.90;100.00
25498;BME280;13406;53.380;7.226;2023-11-21T09:48:11;103105.75;;;7.94;100.00
25498;BME280;13406;53.380;7.226;2023-11-21T09:50:37;103065.84;;;7.81;100.00
25498;BME280;13406;53.380;7.226;2023-11-21T09:53:21;103114.91;;;8.12;100.00
25498;BME280;13406;53.380;7.226;2023-11-21T09:55:51;103112.13;;;8.14;100.00
25498;BME280;13406;53.380;7.226;2023-11-21T09:58:17;103100.44;;;8.15;100.00
25498;BME280;13406;53.380;7.226;2023-11-21T10:00:46;103099.97;;;8.10;100.00
25498;BME280;13406;53.380;7.226;2023-11-21T10:03:12;103095.69;;;8.19;100.00
25498;BME280;13406;53.380;7.226;2023-11-21T10:05:39;103090.47;;;8.17;100.00
25498;BME280;13406;53.380;7.226;2023-11-21T10:08:07;103095.09;;;8.15;100.00
25498;BME280;13406;53.380;7.226;2023-11-21T10:10:35;103106.06;;;8.12;100.00
25498;BME280;13406;53.380;7.226;2023-11-21T10:13:05;103115.22;;;8.30;100.00
25498;BME280;13406;53.380;7.226;2023-11-21T10:15:36;103107.94;;;8.21;100.00
25498;BME280;13406;53.380;7.226;2023-11-21T10:18:03;103101.88;;;8.30;100.00
25498;BME280;13406;53.380;7.226;2023-11-21T10:20:29;103092.78;;;8.22;100.00
25498;BME280;13406;53.380;7.226;2023-11-21T10:22:55;103101.19;;;8.49;100.00
25498;BME280;13406;53.380;7.226;2023-11-21T10:25:22;103085.53;;;8.66;100.00
25498;BME280;13406;53.380;7.226;2023-11-21T10:27:48;103093.06;;;8.81;100.00
25498;BME280;13406;53.380;7.226;2023-11-21T10:30:17;103096.41;;;8.95;100.00
25498;BME280;13406;53.380;7.226;2023-11-21T10:32:43;103107.72;;;9.08;100.00
25498;BME280;13406;53.380;7.226;2023-11-21T10:35:09;103117.41;;;8.99;100.00
25498;BME280;13406;53.380;7.226;2023-11-21T10:37:41;103099.47;;;8.90;100.00
25498;BME280;13406;53.380;7.226;2023-11-21T10:40:08;103117.81;;;8.95;100.00
25498;BME280;13406;53.380;7.226;2023-11-21T10:42:40;103104.66;;;9.13;100.00
25498;BME280;13406;53.380;7.226;2023-11-21T10:45:06;103084.78;;;9.05;100.00
25498;BME280;13406;53.380;7.226;2023-11-21T10:47:41;103103.63;;;9.35;100.00
25498;BME280;13406;53.380;7.226;2023-11-21T10:50:07;103091.03;;;9.25;100.00
25498;BME280;13406;53.380;7.226;2023-11-21T10:52:42;103039.34;;;8.94;100.00
25498;BME280;13406;53.380;7.226;2023-11-21T10:55:19;103077.03;;;9.12;100.00
25498;BME280;13406;53.380;7.226;2023-11-21T10:57:52;103052.72;;;8.94;100.00
25498;BME280;13406;53.380;7.226;2023-11-21T11:00:19;103054.41;;;8.95;100.00
25498;BME280;13406;53.380;7.226;2023-11-21T11:02:53;103020.53;;;8.75;100.00
25498;BME280;13406;53.380;7.226;2023-11-21T11:05:28;103060.63;;;8.96;100.00
25498;BME280;13406;53.380;7.226;2023-11-21T11:08:05;103057.22;;;8.94;100.00
25498;BME280;13406;53.380;7.226;2023-11-21T11:10:31;103009.41;;;8.49;100.00
25498;BME280;13406;53.380;7.226;2023-11-21T11:12:58;103056.16;;;8.75;100.00
25498;BME280;13406;53.380;7.226;2023-11-21T11:15:27;103033.16;;;8.73;100.00
25498;BME280;13406;53.380;7.226;2023-11-21T11:17:54;103013.41;;;8.64;100.00
25498;BME280;13406;53.380;7.226;2023-11-21T11:20:24;103064.94;;;8.87;100.00
25498;BME280;13406;53.380;7.226;2023-11-21T11:25:38;103082.44;;;8.91;100.00
25498;BME280;13406;53.380;7.226;2023-11-21T11:28:12;103086.28;;;8.98;100.00
25498;BME280;13406;53.380;7.226;2023-11-21T11:33:36;103096.44;;;9.04;100.00
25498;BME280;13406;53.380;7.226;2023-11-21T11:36:19;103071.81;;;8.80;100.00
25498;BME280;13406;53.380;7.226;2023-11-21T11:38:47;103115.19;;;9.04;100.00
25498;BME280;13406;53.380;7.226;2023-11-21T11:41:27;103092.44;;;8.89;100.00
25498;BME280;13406;53.380;7.226;2023-11-21T11:43:55;103076.22;;;8.91;100.00
25498;BME280;13406;53.380;7.226;2023-11-21T11:46:20;103077.59;;;8.85;100.00
25498;BME280;13406;53.380;7.226;2023-11-21T11:48:48;103104.00;;;8.99;100.00
25498;BME280;13406;53.380;7.226;2023-11-21T11:51:15;103067.75;;;8.65;100.00
25498;BME280;13406;53.380;7.226;2023-11-21T11:53:46;103121.72;;;8.91;100.00
25498;BME280;13406;53.380;7.226;2023-11-21T11:56:33;103125.75;;;8.85;100.00
25498;BME280;13406;53.380;7.226;2023-11-21T11:59:04;103121.09;;;8.77;100.00
25498;BME280;13406;53.380;7.226;2023-11-21T12:01:32;103114.69;;;8.69;100.00
25498;BME280;13406;53.380;7.226;2023-11-21T12:06:51;103121.47;;;8.73;100.00
25498;BME280;13406;53.380;7.226;2023-11-21T12:09:18;103111.34;;;8.55;100.00
25498;BME280;13406;53.380;7.226;2023-11-21T12:11:46;103117.28;;;8.59;100.00
25498;BME280;13406;53.380;7.226;2023-11-21T12:14:12;103007.50;;;7.86;100.00
25498;BME280;13406;53.380;7.226;2023-11-21T12:16:39;103123.94;;;8.65;100.00
25498;BME280;13406;53.380;7.226;2023-11-21T12:19:04;103130.16;;;8.65;100.00
25498;BME280;13406;53.380;7.226;2023-11-21T12:21:30;103133.47;;;8.57;100.00
25498;BME280;13406;53.380;7.226;2023-11-21T12:23:57;103138.47;;;8.62;100.00
25498;BME280;13406;53.380;7.226;2023-11-21T12:26:26;103132.13;;;8.63;100.00
25498;BME280;13406;53.380;7.226;2023-11-21T12:28:55;103126.50;;;8.66;100.00
25498;BME280;13406;53.380;7.226;2023-11-21T12:31:21;103131.19;;;8.53;100.00
25498;BME280;13406;53.380;7.226;2023-11-21T12:33:47;103133.16;;;8.51;100.00
25498;BME280;13406;53.380;7.226;2023-11-21T12:36:12;103131.00;;;8.45;100.00
25498;BME280;13406;53.380;7.226;2023-11-21T12:38:38;103127.56;;;8.54;100.00
25498;BME280;13406;53.380;7.226;2023-11-21T12:41:03;103068.88;;;8.09;100.00
25498;BME280;13406;53.380;7.226;2023-11-21T12:43:30;103130.59;;;8.70;100.00
25498;BME280;13406;53.380;7.226;2023-11-21T12:46:09;103102.09;;;8.27;100.00
25498;BME280;13406;53.380;7.226;2023-11-21T12:48:38;103159.72;;;8.64;100.00
25498;BME280;13406;53.380;7.226;2023-11-21T12:51:08;103157.63;;;8.67;100.00
25498;BME280;13406;53.380;7.226;2023-11-21T12:53:35;103163.03;;;8.56;100.00
25498;BME280;13406;53.380;7.226;2023-11-21T12:56:13;103038.47;;;7.89;100.00